createdAt,value
2016-04-25T00:00:53.969Z,1006.21
2016-04-25T00:01:53.955Z,1006.23
2016-04-25T00:02:53.941Z,1006.2
2016-04-25T00:03:53.913Z,1006.18
2016-04-25T00:04:53.902Z,1006.2
2016-04-25T00:05:53.872Z,1006.22
2016-04-25T00:06:53.859Z,1006.16
2016-04-25T00:07:53.846Z,1006.19
2016-04-25T00:08:53.817Z,1006.16
2016-04-25T00:09:53.805Z,1006.12
2016-04-25T00:10:53.777Z,1006.14
2016-04-25T00:11:53.873Z,1006.13
2016-04-25T00:12:54.281Z,1006.08
2016-04-25T00:13:53.721Z,1006.12
2016-04-25T00:14:53.709Z,1006.16
2016-04-25T00:15:53.696Z,1006.12
2016-04-25T00:16:53.668Z,1006.14
2016-04-25T00:17:53.654Z,1006.14
2016-04-25T00:18:53.623Z,1006.12
2016-04-25T00:19:53.609Z,1006.05
2016-04-25T00:20:53.597Z,1006.06
2016-04-25T00:21:53.570Z,1006.09
2016-04-25T00:22:53.545Z,1006.08
2016-04-25T00:23:53.532Z,1006.12
2016-04-25T00:24:53.520Z,1006.1
2016-04-25T00:25:53.492Z,1006.1
2016-04-25T00:26:53.915Z,1006.11
2016-04-25T00:27:53.840Z,1006.09
2016-04-25T00:28:53.437Z,1006.09
2016-04-25T00:29:53.423Z,1006.05
2016-04-25T00:30:53.396Z,1006.08
2016-04-25T00:31:53.383Z,1006.07
2016-04-25T00:32:53.370Z,1006.07
2016-04-25T00:33:53.342Z,1006.02
2016-04-25T00:34:53.328Z,1006.02
2016-04-25T00:35:53.300Z,1006.02
2016-04-25T00:36:53.286Z,1006.02
2016-04-25T00:37:53.275Z,1005.99
2016-04-25T00:38:53.245Z,1006
2016-04-25T00:39:53.233Z,1005.99
2016-04-25T00:40:53.219Z,1006.02
2016-04-25T00:41:53.191Z,1005.97
2016-04-25T00:42:53.177Z,1005.95
2016-04-25T00:43:53.150Z,1005.98
2016-04-25T00:44:53.136Z,1005.99
2016-04-25T00:45:53.124Z,1005.99
2016-04-25T00:46:53.094Z,1005.94
2016-04-25T00:47:53.083Z,1005.95
2016-04-25T00:48:53.054Z,1005.94
2016-04-25T00:49:53.041Z,1005.98
2016-04-25T00:50:53.027Z,1005.94
2016-04-25T00:51:52.999Z,1005.93
2016-04-25T00:52:52.985Z,1005.97
2016-04-25T00:53:52.974Z,1005.98
2016-04-25T00:54:52.945Z,1006
2016-04-25T00:55:52.932Z,1005.93
2016-04-25T00:56:52.903Z,1005.95
2016-04-25T00:57:53.360Z,1005.94
2016-04-25T00:58:52.877Z,1005.92
2016-04-25T00:59:52.849Z,1005.92
2016-04-25T01:00:52.851Z,1005.92
2016-04-25T01:01:52.806Z,1005.92
2016-04-25T01:02:52.794Z,1005.9
2016-04-25T01:03:52.782Z,1005.96
2016-04-25T01:04:52.753Z,1005.91
2016-04-25T01:05:52.740Z,1005.93
2016-04-25T01:06:52.727Z,1005.87
2016-04-25T01:07:52.698Z,1005.88
2016-04-25T01:08:52.686Z,1005.87
2016-04-25T01:09:52.657Z,1005.88
2016-04-25T01:10:52.644Z,1005.86
2016-04-25T01:11:52.630Z,1005.85
2016-04-25T01:12:52.602Z,1005.87
2016-04-25T01:13:52.589Z,1005.87
2016-04-25T01:14:52.577Z,1005.82
2016-04-25T01:15:52.547Z,1005.83
2016-04-25T01:16:52.535Z,1005.82
2016-04-25T01:17:52.507Z,1005.83
2016-04-25T01:18:52.494Z,1005.78
2016-04-25T01:19:52.480Z,1005.8
2016-04-25T01:20:52.452Z,1005.78
2016-04-25T01:21:52.438Z,1005.79
2016-04-25T01:22:52.427Z,1005.77
2016-04-25T01:23:52.398Z,1005.72
2016-04-25T01:24:52.384Z,1005.73
2016-04-25T01:25:52.356Z,1005.71
2016-04-25T01:26:52.343Z,1005.74
2016-04-25T01:27:52.330Z,1005.75
2016-04-25T01:28:52.302Z,1005.75
2016-04-25T01:29:52.289Z,1005.74
2016-04-25T01:30:52.260Z,1005.72
2016-04-25T01:31:52.248Z,1005.74
2016-04-25T01:32:52.250Z,1005.72
2016-04-25T01:33:52.206Z,1005.74
2016-04-25T01:34:52.193Z,1005.74
2016-04-25T01:35:52.180Z,1005.74
2016-04-25T01:36:52.151Z,1005.71
2016-04-25T01:37:52.139Z,1005.73
2016-04-25T01:38:52.125Z,1005.7
2016-04-25T01:39:52.097Z,1005.72
2016-04-25T01:40:52.084Z,1005.7
2016-04-25T01:41:52.056Z,1005.71
2016-04-25T01:42:52.230Z,1005.7
2016-04-25T01:43:52.029Z,1005.72
2016-04-25T01:44:52.000Z,1005.71
2016-04-25T01:45:51.988Z,1005.67
2016-04-25T01:46:51.975Z,1005.68
2016-04-25T01:47:51.947Z,1005.67
2016-04-25T01:48:51.933Z,1005.72
2016-04-25T01:49:51.905Z,1005.72
2016-04-25T01:50:51.892Z,1005.68
2016-04-25T01:51:51.879Z,1005.66
2016-04-25T01:52:51.866Z,1005.69
2016-04-25T01:53:51.838Z,1005.66
2016-04-25T01:54:51.810Z,1005.7
2016-04-25T01:55:51.796Z,1005.66
2016-04-25T01:56:51.783Z,1005.71
2016-04-25T01:57:51.754Z,1005.7
2016-04-25T01:58:51.742Z,1005.72
2016-04-25T01:59:51.729Z,1005.66
2016-04-25T02:00:51.700Z,1005.65
2016-04-25T02:01:51.688Z,1005.7
2016-04-25T02:02:51.690Z,1005.67
2016-04-25T02:03:51.646Z,1005.66
2016-04-25T02:04:51.633Z,1005.66
2016-04-25T02:05:51.604Z,1005.64
2016-04-25T02:06:51.592Z,1005.64
2016-04-25T02:07:51.579Z,1005.65
2016-04-25T02:08:51.565Z,1005.64
2016-04-25T02:09:51.537Z,1005.6
2016-04-25T02:10:51.524Z,1005.59
2016-04-25T02:11:51.496Z,1005.6
2016-04-25T02:12:51.483Z,1005.61
2016-04-25T02:13:51.469Z,1005.58
2016-04-25T02:14:51.441Z,1005.58
2016-04-25T02:15:51.428Z,1005.52
2016-04-25T02:16:51.400Z,1005.53
2016-04-25T02:17:51.386Z,1005.53
2016-04-25T02:18:51.374Z,1005.51
2016-04-25T02:19:51.344Z,1005.55
2016-04-25T02:20:51.332Z,1005.54
2016-04-25T02:21:51.320Z,1005.57
2016-04-25T02:22:51.307Z,1005.52
2016-04-25T02:23:51.277Z,1005.48
2016-04-25T02:24:51.249Z,1005.5
2016-04-25T02:25:51.251Z,1005.52
2016-04-25T02:26:51.224Z,1005.51
2016-04-25T02:27:51.430Z,1005.44
2016-04-25T02:28:51.181Z,1005.47
2016-04-25T02:29:51.169Z,1005.5
2016-04-25T02:30:51.140Z,1005.5
2016-04-25T02:31:51.127Z,1005.46
2016-04-25T02:32:51.099Z,1005.46
2016-04-25T02:33:51.087Z,1005.46
2016-04-25T02:34:51.074Z,1005.46
2016-04-25T02:35:51.045Z,1005.47
2016-04-25T02:36:51.031Z,1005.46
2016-04-25T02:37:51.003Z,1005.46
2016-04-25T02:38:50.989Z,1005.46
2016-04-25T02:39:50.977Z,1005.47
2016-04-25T02:40:50.965Z,1005.42
2016-04-25T02:41:50.951Z,1005.46
2016-04-25T02:42:50.923Z,1005.47
2016-04-25T02:43:50.894Z,1005.46
2016-04-25T02:44:50.881Z,1005.42
2016-04-25T02:45:50.853Z,1005.42
2016-04-25T02:46:50.840Z,1005.42
2016-04-25T02:47:50.827Z,1005.41
2016-04-25T02:48:50.798Z,1005.47
2016-04-25T02:49:50.786Z,1005.45
2016-04-25T02:50:50.757Z,1005.46
2016-04-25T02:51:50.744Z,1005.45
2016-04-25T02:52:50.731Z,1005.45
2016-04-25T02:53:50.702Z,1005.44
2016-04-25T02:54:50.689Z,1005.4
2016-04-25T02:55:50.676Z,1005.41
2016-04-25T02:56:50.649Z,1005.43
2016-04-25T02:57:50.807Z,1005.39
2016-04-25T02:58:50.607Z,1005.38
2016-04-25T02:59:50.594Z,1005.33
2016-04-25T03:00:50.580Z,1005.34
2016-04-25T03:01:50.568Z,1005.32
2016-04-25T03:02:50.539Z,1005.33
2016-04-25T03:03:50.527Z,1005.31
2016-04-25T03:04:50.498Z,1005.28
2016-04-25T03:05:50.484Z,1005.27
2016-04-25T03:06:50.457Z,1005.3
2016-04-25T03:07:50.443Z,1005.26
2016-04-25T03:08:50.414Z,1005.31
2016-04-25T03:09:50.401Z,1005.25
2016-04-25T03:10:50.389Z,1005.23
2016-04-25T03:11:50.360Z,1005.23
2016-04-25T03:12:50.347Z,1005.22
2016-04-25T03:13:50.334Z,1005.19
2016-04-25T03:14:50.306Z,1005.19
2016-04-25T03:15:50.292Z,1005.19
2016-04-25T03:16:50.264Z,1005.18
2016-04-25T03:17:50.251Z,1005.2
2016-04-25T03:18:50.238Z,1005.17
2016-04-25T03:19:50.211Z,1005.15
2016-04-25T03:20:50.197Z,1005.12
2016-04-25T03:21:50.168Z,1005.11
2016-04-25T03:22:50.155Z,1005.15
2016-04-25T03:23:50.142Z,1005.16
2016-04-25T03:24:50.113Z,1005.15
2016-04-25T03:25:50.101Z,1005.11
2016-04-25T03:26:50.088Z,1005.11
2016-04-25T03:27:50.075Z,1005.1
2016-04-25T03:28:50.046Z,1005.14
2016-04-25T03:29:50.018Z,1005.13
2016-04-25T03:30:50.004Z,1005.12
2016-04-25T03:31:49.992Z,1005.12
2016-04-25T03:32:49.964Z,1005.11
2016-04-25T03:33:49.950Z,1005.12
2016-04-25T03:34:49.922Z,1005.1
2016-04-25T03:35:49.909Z,1005.12
2016-04-25T03:36:49.896Z,1005.08
2016-04-25T03:37:49.868Z,1005.07
2016-04-25T03:38:49.854Z,1005.09
2016-04-25T03:39:49.842Z,1005.09
2016-04-25T03:40:49.812Z,1005.08
2016-04-25T03:41:49.800Z,1005.07
2016-04-25T03:42:49.787Z,1005.12
2016-04-25T03:43:49.759Z,1005.06
2016-04-25T03:44:49.745Z,1005.06
2016-04-25T03:45:49.717Z,1005.09
2016-04-25T03:46:49.704Z,1005.02
2016-04-25T03:47:49.692Z,1005.05
2016-04-25T03:48:49.678Z,1005.01
2016-04-25T03:49:49.666Z,1004.99
2016-04-25T03:50:49.637Z,1004.98
2016-04-25T03:51:49.608Z,1004.99
2016-04-25T03:52:49.595Z,1004.99
2016-04-25T03:53:49.567Z,1004.94
2016-04-25T03:54:49.554Z,1004.94
2016-04-25T03:55:49.541Z,1004.89
2016-04-25T03:56:49.513Z,1004.93
2016-04-25T03:57:50.344Z,1004.89
2016-04-25T03:58:49.486Z,1004.91
2016-04-25T03:59:49.457Z,1004.89
2016-04-25T04:00:49.445Z,1004.92
2016-04-25T04:01:49.433Z,1004.87
2016-04-25T04:02:49.404Z,1004.92
2016-04-25T04:03:49.390Z,1004.92
2016-04-25T04:04:49.377Z,1004.89
2016-04-25T04:05:49.349Z,1004.91
2016-04-25T04:06:49.337Z,1004.93
2016-04-25T04:07:49.307Z,1004.91
2016-04-25T04:08:49.295Z,1004.89
2016-04-25T04:09:49.282Z,1004.91
2016-04-25T04:10:49.254Z,1004.92
2016-04-25T04:11:49.240Z,1004.93
2016-04-25T04:12:49.227Z,1004.91
2016-04-25T04:13:49.198Z,1004.91
2016-04-25T04:14:49.187Z,1004.93
2016-04-25T04:15:49.173Z,1004.92
2016-04-25T04:16:49.145Z,1004.93
2016-04-25T04:17:49.131Z,1004.88
2016-04-25T04:18:49.119Z,1004.91
2016-04-25T04:19:49.090Z,1004.88
2016-04-25T04:20:49.077Z,1004.87
2016-04-25T04:21:49.065Z,1004.88
2016-04-25T04:22:49.036Z,1004.9
2016-04-25T04:23:49.023Z,1004.85
2016-04-25T04:24:48.994Z,1004.83
2016-04-25T04:25:48.981Z,1004.87
2016-04-25T04:26:48.968Z,1004.84
2016-04-25T04:27:48.940Z,1004.8
2016-04-25T04:28:48.942Z,1004.81
2016-04-25T04:29:48.914Z,1004.82
2016-04-25T04:30:48.885Z,1004.82
2016-04-25T04:31:48.872Z,1004.81
2016-04-25T04:32:48.859Z,1004.79
2016-04-25T04:33:48.831Z,1004.78
2016-04-25T04:34:48.818Z,1004.85
2016-04-25T04:35:48.805Z,1004.81
2016-04-25T04:36:48.792Z,1004.8
2016-04-25T04:37:48.763Z,1004.78
2016-04-25T04:38:48.751Z,1004.78
2016-04-25T04:39:48.721Z,1004.76
2016-04-25T04:40:48.709Z,1004.74
2016-04-25T04:41:48.696Z,1004.76
2016-04-25T04:42:49.309Z,1004.71
2016-04-25T04:43:49.482Z,1004.72
2016-04-25T04:44:48.642Z,1004.72
2016-04-25T04:45:48.628Z,1004.74
2016-04-25T04:46:48.601Z,1004.73
2016-04-25T04:47:48.587Z,1004.73
2016-04-25T04:48:48.559Z,1004.67
2016-04-25T04:49:48.545Z,1004.71
2016-04-25T04:50:48.533Z,1004.68
2016-04-25T04:51:48.504Z,1004.68
2016-04-25T04:52:48.492Z,1004.65
2016-04-25T04:53:48.478Z,1004.65
2016-04-25T04:54:48.466Z,1004.6
2016-04-25T04:55:48.436Z,1004.62
2016-04-25T04:56:48.424Z,1004.64
2016-04-25T04:57:49.161Z,1004.64
2016-04-25T04:58:49.085Z,1004.6
2016-04-25T04:59:48.369Z,1004.59
2016-04-25T05:00:48.357Z,1004.62
2016-04-25T05:01:48.344Z,1004.58
2016-04-25T05:02:48.315Z,1004.56
2016-04-25T05:03:48.302Z,1004.59
2016-04-25T05:04:48.289Z,1004.56
2016-04-25T05:05:48.261Z,1004.59
2016-04-25T05:06:48.248Z,1004.58
2016-04-25T05:07:48.235Z,1004.58
2016-04-25T05:08:48.221Z,1004.62
2016-04-25T05:09:48.193Z,1004.6
2016-04-25T05:10:48.180Z,1004.63
2016-04-25T05:11:48.168Z,1004.59
2016-04-25T05:12:48.190Z,1004.57
2016-04-25T05:13:48.221Z,1004.57
2016-04-25T05:14:48.237Z,1004.57
2016-04-25T05:15:48.268Z,1004.53
2016-04-25T05:16:48.299Z,1004.53
2016-04-25T05:17:48.307Z,1004.55
2016-04-25T05:18:48.295Z,1004.5
2016-04-25T05:19:48.298Z,1004.52
2016-04-25T05:20:48.301Z,1004.51
2016-04-25T05:21:48.303Z,1004.51
2016-04-25T05:22:48.298Z,1004.5
2016-04-25T05:23:48.275Z,1004.49
2016-04-25T05:24:48.269Z,1004.46
2016-04-25T05:25:48.261Z,1004.45
2016-04-25T05:26:48.254Z,1004.44
2016-04-25T05:27:48.227Z,1004.41
2016-04-25T05:28:48.232Z,1004.46
2016-04-25T05:29:48.205Z,1004.44
2016-04-25T05:30:48.195Z,1004.42
2016-04-25T05:31:48.184Z,1004.43
2016-04-25T05:32:48.156Z,1004.47
2016-04-25T05:33:48.144Z,1004.48
2016-04-25T05:34:48.131Z,1004.43
2016-04-25T05:35:48.120Z,1004.48
2016-04-25T05:36:48.091Z,1004.44
2016-04-25T05:37:48.080Z,1004.48
2016-04-25T05:38:48.066Z,1004.47
2016-04-25T05:39:48.055Z,1004.45
2016-04-25T05:40:48.042Z,1004.44
2016-04-25T05:41:48.014Z,1004.48
2016-04-25T05:42:48.000Z,1004.49
2016-04-25T05:43:48.863Z,1004.47
2016-04-25T05:44:47.975Z,1004.49
2016-04-25T05:45:47.961Z,1004.48
2016-04-25T05:46:47.949Z,1004.49
2016-04-25T05:47:47.920Z,1004.46
2016-04-25T05:48:47.908Z,1004.48
2016-04-25T05:49:47.895Z,1004.43
2016-04-25T05:50:47.866Z,1004.49
2016-04-25T05:51:47.852Z,1004.43
2016-04-25T05:52:47.841Z,1004.47
2016-04-25T05:53:47.827Z,1004.42
2016-04-25T05:54:47.798Z,1004.46
2016-04-25T05:55:47.786Z,1004.46
2016-04-25T05:56:47.772Z,1004.42
2016-04-25T05:57:47.760Z,1004.46
2016-04-25T05:58:47.747Z,1004.49
2016-04-25T05:59:47.749Z,1004.47
2016-04-25T06:00:47.705Z,1004.48
2016-04-25T06:01:47.692Z,1004.46
2016-04-25T06:02:47.680Z,1004.46
2016-04-25T06:03:47.651Z,1004.5
2016-04-25T06:04:47.637Z,1004.48
2016-04-25T06:05:47.626Z,1004.44
2016-04-25T06:06:47.628Z,1004.51
2016-04-25T06:07:47.599Z,1004.46
2016-04-25T06:08:47.587Z,1004.42
2016-04-25T06:09:47.573Z,1004.42
2016-04-25T06:10:47.545Z,1004.45
2016-04-25T06:11:47.531Z,1004.42
2016-04-25T06:12:47.519Z,1004.4
2016-04-25T06:13:47.506Z,1004.42
2016-04-25T06:14:47.493Z,1004.4
2016-04-25T06:15:47.464Z,1004.4
2016-04-25T06:16:47.451Z,1004.44
2016-04-25T06:17:47.439Z,1004.38
2016-04-25T06:18:47.425Z,1004.34
2016-04-25T06:19:47.413Z,1004.37
2016-04-25T06:20:47.400Z,1004.34
2016-04-25T06:21:47.371Z,1004.34
2016-04-25T06:22:47.359Z,1004.29
2016-04-25T06:23:47.346Z,1004.32
2016-04-25T06:24:47.333Z,1004.33
2016-04-25T06:25:47.320Z,1004.27
2016-04-25T06:26:47.308Z,1004.28
2016-04-25T06:27:47.295Z,1004.29
2016-04-25T06:28:47.266Z,1004.26
2016-04-25T06:29:47.269Z,1004.3
2016-04-25T06:30:47.240Z,1004.28
2016-04-25T06:31:47.227Z,1004.22
2016-04-25T06:32:47.214Z,1004.24
2016-04-25T06:33:47.202Z,1004.22
2016-04-25T06:34:47.188Z,1004.21
2016-04-25T06:35:47.176Z,1004.21
2016-04-25T06:36:47.147Z,1004.2
2016-04-25T06:37:47.133Z,1004.18
2016-04-25T06:38:47.122Z,1004.15
2016-04-25T06:39:47.107Z,1004.15
2016-04-25T06:40:47.096Z,1004.14
2016-04-25T06:41:47.082Z,1004.09
2016-04-25T06:42:47.069Z,1004.15
2016-04-25T06:43:47.306Z,1004.07
2016-04-25T06:44:47.044Z,1004.13
2016-04-25T06:45:47.030Z,1004.06
2016-04-25T06:46:47.033Z,1004.06
2016-04-25T06:47:47.004Z,1003.98
2016-04-25T06:48:46.993Z,1004.06
2016-04-25T06:49:46.978Z,1004.05
2016-04-25T06:50:46.966Z,1004.01
2016-04-25T06:51:46.953Z,1003.99
2016-04-25T06:52:46.940Z,1004.01
2016-04-25T06:53:46.942Z,1004.03
2016-04-25T06:54:46.930Z,1004.01
2016-04-25T06:55:46.917Z,1004.03
2016-04-25T06:56:46.904Z,1004.01
2016-04-25T06:57:46.922Z,1003.97
2016-04-25T06:58:46.925Z,1003.97
2016-04-25T06:59:47.100Z,1003.99
2016-04-25T07:00:46.853Z,1003.98
2016-04-25T07:01:46.839Z,1003.92
2016-04-25T07:02:46.825Z,1003.97
2016-04-25T07:03:46.828Z,1003.88
2016-04-25T07:04:46.816Z,1003.88
2016-04-25T07:05:46.803Z,1003.89
2016-04-25T07:06:46.791Z,1003.88
2016-04-25T07:07:46.777Z,1003.87
2016-04-25T07:08:46.764Z,1003.9
2016-04-25T07:09:46.752Z,1003.87
2016-04-25T07:10:46.738Z,1003.92
2016-04-25T07:11:46.725Z,1003.95
2016-04-25T07:12:46.713Z,1003.89
2016-04-25T07:13:47.012Z,1003.91
2016-04-25T07:14:46.702Z,1003.83
2016-04-25T07:15:46.690Z,1003.77
2016-04-25T07:16:46.676Z,1003.87
2016-04-25T07:17:46.663Z,1003.79
2016-04-25T07:18:46.651Z,1003.79
2016-04-25T07:19:46.638Z,1003.79
2016-04-25T07:20:46.624Z,1003.76
2016-04-25T07:21:46.627Z,1003.76
2016-04-25T07:22:46.598Z,1003.7
2016-04-25T07:23:46.586Z,1003.67
2016-04-25T07:24:46.573Z,1003.71
2016-04-25T07:25:46.576Z,1003.63
2016-04-25T07:26:46.547Z,1003.62
2016-04-25T07:27:46.550Z,1003.6
2016-04-25T07:28:47.146Z,1003.63
2016-04-25T07:29:46.523Z,1003.59
2016-04-25T07:30:46.511Z,1003.57
2016-04-25T07:31:46.498Z,1003.55
2016-04-25T07:32:46.486Z,1003.53
2016-04-25T07:33:46.472Z,1003.5
2016-04-25T07:34:46.459Z,1003.55
2016-04-25T07:35:46.447Z,1003.46
2016-04-25T07:36:46.433Z,1003.47
2016-04-25T07:37:46.436Z,1003.48
2016-04-25T07:38:46.422Z,1003.44
2016-04-25T07:39:46.411Z,1003.36
2016-04-25T07:40:46.397Z,1003.43
2016-04-25T07:41:46.385Z,1003.39
2016-04-25T07:42:46.371Z,1003.4
2016-04-25T07:43:46.374Z,1003.36
2016-04-25T07:44:46.360Z,1003.42
2016-04-25T07:45:46.349Z,1003.36
2016-04-25T07:46:46.335Z,1003.33
2016-04-25T07:47:46.557Z,1003.31
2016-04-25T07:48:46.324Z,1003.24
2016-04-25T07:49:46.312Z,1003.25
2016-04-25T07:50:46.315Z,1003.27
2016-04-25T07:51:46.301Z,1003.29
2016-04-25T07:52:46.290Z,1003.27
2016-04-25T07:53:46.276Z,1003.25
2016-04-25T07:54:46.279Z,1003.24
2016-04-25T07:55:46.266Z,1003.1
2016-04-25T07:56:46.268Z,1003.17
2016-04-25T07:57:46.255Z,1003.08
2016-04-25T07:58:46.243Z,1003.17
2016-04-25T07:59:46.276Z,1003.08
2016-04-25T08:00:46.232Z,1003.03
2016-04-25T08:01:46.235Z,1003.03
2016-04-25T08:02:46.222Z,1003.07
2016-04-25T08:03:46.225Z,1003.04
2016-04-25T08:04:46.212Z,1003.07
2016-04-25T08:05:46.199Z,1003.03
2016-04-25T08:06:46.202Z,1003.01
2016-04-25T08:07:46.189Z,1003.01
2016-04-25T08:08:46.191Z,1002.96
2016-04-25T08:09:46.210Z,1002.93
2016-04-25T08:10:46.181Z,1002.95
2016-04-25T08:11:46.184Z,1002.93
2016-04-25T08:12:46.164Z,1002.92
2016-04-25T08:13:46.151Z,1002.91
2016-04-25T08:14:46.154Z,1002.88
2016-04-25T08:15:46.141Z,1002.85
2016-04-25T08:16:46.143Z,1002.83
2016-04-25T08:17:46.131Z,1002.77
2016-04-25T08:18:46.133Z,1002.83
2016-04-25T08:19:46.136Z,1002.84
2016-04-25T08:20:46.122Z,1002.78
2016-04-25T08:21:46.125Z,1002.83
2016-04-25T08:22:46.114Z,1002.8
2016-04-25T08:23:46.117Z,1002.75
2016-04-25T08:24:46.103Z,1002.72
2016-04-25T08:25:46.106Z,1002.72
2016-04-25T08:26:46.093Z,1002.71
2016-04-25T08:27:46.095Z,1002.71
2016-04-25T08:28:46.083Z,1002.71
2016-04-25T08:29:46.086Z,1002.64
2016-04-25T08:30:46.089Z,1002.67
2016-04-25T08:31:46.075Z,1002.63
2016-04-25T08:32:46.078Z,1002.65
2016-04-25T08:33:46.065Z,1002.72
2016-04-25T08:34:46.069Z,1002.6
2016-04-25T08:35:46.055Z,1002.64
2016-04-25T08:36:46.058Z,1002.65
2016-04-25T08:37:46.044Z,1002.55
2016-04-25T08:38:46.047Z,1002.59
2016-04-25T08:39:46.035Z,1002.56
2016-04-25T08:40:46.042Z,1002.55
2016-04-25T08:41:46.029Z,1002.51
2016-04-25T08:42:46.016Z,1002.47
2016-04-25T08:43:48.612Z,1002.42
2016-04-25T08:44:46.007Z,1002.46
2016-04-25T08:45:45.993Z,1002.38
2016-04-25T08:46:45.996Z,1002.32
2016-04-25T08:47:45.982Z,1002.34
2016-04-25T08:48:45.970Z,1002.28
2016-04-25T08:49:45.973Z,1002.25
2016-04-25T08:50:45.975Z,1002.29
2016-04-25T08:51:45.962Z,1002.24
2016-04-25T08:52:45.950Z,1002.31
2016-04-25T08:53:45.952Z,1002.25
2016-04-25T08:54:45.939Z,1002.2
2016-04-25T08:55:45.926Z,1002.22
2016-04-25T08:56:45.928Z,1002.21
2016-04-25T08:57:45.916Z,1002.19
2016-04-25T08:58:46.497Z,1002.15
2016-04-25T08:59:45.906Z,1002.19
2016-04-25T09:00:45.892Z,1002.17
2016-04-25T09:01:45.880Z,1002.13
2016-04-25T09:02:45.882Z,1002.11
2016-04-25T09:03:45.869Z,1002.11
2016-04-25T09:04:45.872Z,1002.16
2016-04-25T09:05:45.906Z,1002.08
2016-04-25T09:06:45.846Z,1002.13
2016-04-25T09:07:45.849Z,1001.99
2016-04-25T09:08:45.836Z,1002.02
2016-04-25T09:09:45.839Z,1002.07
2016-04-25T09:10:45.826Z,1002.02
2016-04-25T09:11:45.813Z,1002.02
2016-04-25T09:12:45.815Z,1002.11
2016-04-25T09:13:45.802Z,1002.14
2016-04-25T09:14:45.805Z,1002.13
2016-04-25T09:15:45.792Z,1002.08
2016-04-25T09:16:45.783Z,1002.08
2016-04-25T09:17:45.771Z,1002.15
2016-04-25T09:18:45.774Z,1002.08
2016-04-25T09:19:45.760Z,1002.08
2016-04-25T09:20:45.747Z,1002.05
2016-04-25T09:21:45.750Z,1002.04
2016-04-25T09:22:45.738Z,1002
2016-04-25T09:23:45.724Z,1001.99
2016-04-25T09:24:45.836Z,1001.96
2016-04-25T09:25:45.713Z,1002.05
2016-04-25T09:26:45.701Z,1001.9
2016-04-25T09:27:45.704Z,1001.89
2016-04-25T09:28:45.691Z,1001.92
2016-04-25T09:29:46.006Z,1001.95
2016-04-25T09:30:45.681Z,1001.94
2016-04-25T09:31:45.667Z,1001.89
2016-04-25T09:32:45.671Z,1001.86
2016-04-25T09:33:45.657Z,1001.96
2016-04-25T09:34:45.644Z,1001.88
2016-04-25T09:35:45.631Z,1001.86
2016-04-25T09:36:45.634Z,1001.86
2016-04-25T09:37:45.621Z,1001.79
2016-04-25T09:38:45.608Z,1001.83
2016-04-25T09:39:45.611Z,1001.84
2016-04-25T09:40:45.598Z,1001.72
2016-04-25T09:41:45.600Z,1001.76
2016-04-25T09:42:45.588Z,1001.76
2016-04-25T09:43:45.575Z,1001.78
2016-04-25T09:44:45.905Z,1001.77
2016-04-25T09:45:45.564Z,1001.72
2016-04-25T09:46:45.552Z,1001.69
2016-04-25T09:47:45.539Z,1001.63
2016-04-25T09:48:45.541Z,1001.68
2016-04-25T09:49:45.528Z,1001.63
2016-04-25T09:50:45.531Z,1001.65
2016-04-25T09:51:45.502Z,1001.61
2016-04-25T09:52:45.505Z,1001.6
2016-04-25T09:53:45.492Z,1001.69
2016-04-25T09:54:45.479Z,1001.58
2016-04-25T09:55:45.482Z,1001.64
2016-04-25T09:56:45.485Z,1001.63
2016-04-25T09:57:45.471Z,1001.6
2016-04-25T09:58:45.443Z,1001.6
2016-04-25T09:59:45.430Z,1001.61
2016-04-25T10:00:45.449Z,1001.61
2016-04-25T10:01:45.451Z,1001.52
2016-04-25T10:02:45.423Z,1001.52
2016-04-25T10:03:45.409Z,1001.52
2016-04-25T10:04:45.397Z,1001.52
2016-04-25T10:05:45.384Z,1001.54
2016-04-25T10:06:45.371Z,1001.51
2016-04-25T10:07:45.373Z,1001.45
2016-04-25T10:08:45.361Z,1001.42
2016-04-25T10:09:45.364Z,1001.4
2016-04-25T10:10:45.351Z,1001.37
2016-04-25T10:11:45.322Z,1001.38
2016-04-25T10:12:45.308Z,1001.38
2016-04-25T10:13:45.312Z,1001.3
2016-04-25T10:14:45.300Z,1001.35
2016-04-25T10:15:45.286Z,1001.33
2016-04-25T10:16:45.273Z,1001.38
2016-04-25T10:17:45.275Z,1001.3
2016-04-25T10:18:45.278Z,1001.34
2016-04-25T10:19:45.266Z,1001.37
2016-04-25T10:20:45.269Z,1001.34
2016-04-25T10:21:45.239Z,1001.26
2016-04-25T10:22:45.226Z,1001.22
2016-04-25T10:23:45.229Z,1001.18
2016-04-25T10:24:45.201Z,1001.17
2016-04-25T10:25:45.188Z,1001.18
2016-04-25T10:26:45.191Z,1001.15
2016-04-25T10:27:45.177Z,1001.12
2016-04-25T10:28:45.165Z,1001.1
2016-04-25T10:29:45.152Z,1001.12
2016-04-25T10:30:45.186Z,1001.08
2016-04-25T10:31:45.132Z,1001.07
2016-04-25T10:32:45.118Z,1001.03
2016-04-25T10:33:45.121Z,1001.01
2016-04-25T10:34:45.112Z,1000.96
2016-04-25T10:35:45.106Z,1001.01
2016-04-25T10:36:45.123Z,1000.96
2016-04-25T10:37:45.079Z,1000.97
2016-04-25T10:38:45.067Z,1000.92
2016-04-25T10:39:45.054Z,1000.94
2016-04-25T10:40:45.041Z,1000.92
2016-04-25T10:41:45.075Z,1000.86
2016-04-25T10:42:45.014Z,1000.79
2016-04-25T10:43:45.002Z,1000.8
2016-04-25T10:44:44.989Z,1000.68
2016-04-25T10:45:44.976Z,1000.71
2016-04-25T10:46:44.978Z,1000.71
2016-04-25T10:47:44.966Z,1000.68
2016-04-25T10:48:44.953Z,1000.7
2016-04-25T10:49:44.956Z,1000.69
2016-04-25T10:50:44.942Z,1000.63
2016-04-25T10:51:44.914Z,1000.66
2016-04-25T10:52:44.916Z,1000.66
2016-04-25T10:53:44.904Z,1000.61
2016-04-25T10:54:44.890Z,1000.61
2016-04-25T10:55:44.878Z,1000.61
2016-04-25T10:56:44.865Z,1000.55
2016-04-25T10:57:44.852Z,1000.55
2016-04-25T10:58:44.838Z,1000.51
2016-04-25T10:59:44.827Z,1000.52
2016-04-25T11:00:44.829Z,1000.49
2016-04-25T11:01:44.801Z,1000.38
2016-04-25T11:02:44.818Z,1000.42
2016-04-25T11:03:44.790Z,1000.41
2016-04-25T11:04:44.777Z,1000.43
2016-04-25T11:05:44.764Z,1000.39
2016-04-25T11:06:44.751Z,1000.41
2016-04-25T11:07:44.738Z,1000.38
2016-04-25T11:08:44.726Z,1000.36
2016-04-25T11:09:44.712Z,1000.31
2016-04-25T11:10:44.700Z,1000.26
2016-04-25T11:11:44.703Z,1000.35
2016-04-25T11:12:44.689Z,1000.27
2016-04-25T11:13:44.675Z,1000.25
2016-04-25T11:14:45.007Z,1000.17
2016-04-25T11:15:44.650Z,1000.17
2016-04-25T11:16:44.637Z,1000.15
2016-04-25T11:17:44.625Z,1000.14
2016-04-25T11:18:44.612Z,1000.2
2016-04-25T11:19:44.599Z,1000.05
2016-04-25T11:20:44.602Z,1000.06
2016-04-25T11:21:44.589Z,1000.04
2016-04-25T11:22:44.575Z,1000.06
2016-04-25T11:23:44.563Z,1000.07
2016-04-25T11:24:44.549Z,1000
2016-04-25T11:25:44.552Z,1000.05
2016-04-25T11:26:44.539Z,1000.04
2016-04-25T11:27:44.527Z,999.97
2016-04-25T11:28:44.514Z,999.97
2016-04-25T11:29:44.501Z,999.91
2016-04-25T11:30:44.504Z,999.85
2016-04-25T11:31:44.491Z,999.86
2016-04-25T11:32:44.477Z,999.89
2016-04-25T11:33:44.465Z,999.92
2016-04-25T11:34:44.467Z,999.87
2016-04-25T11:35:44.454Z,999.86
2016-04-25T11:36:44.738Z,999.91
2016-04-25T11:37:44.428Z,999.79
2016-04-25T11:38:44.415Z,999.89
2016-04-25T11:39:44.418Z,999.8
2016-04-25T11:40:44.451Z,999.84
2016-04-25T11:41:44.392Z,999.73
2016-04-25T11:42:44.379Z,999.79
2016-04-25T11:43:45.491Z,999.74
2016-04-25T11:44:44.369Z,999.78
2016-04-25T11:45:44.356Z,999.77
2016-04-25T11:46:44.343Z,999.77
2016-04-25T11:47:44.350Z,999.74
2016-04-25T11:48:44.327Z,999.79
2016-04-25T11:49:44.330Z,999.75
2016-04-25T11:50:44.302Z,999.74
2016-04-25T11:51:44.319Z,999.7
2016-04-25T11:52:44.296Z,999.65
2016-04-25T11:53:44.267Z,999.7
2016-04-25T11:54:44.270Z,999.67
2016-04-25T11:55:44.257Z,999.67
2016-04-25T11:56:44.244Z,999.6
2016-04-25T11:57:44.232Z,999.52
2016-04-25T11:58:44.234Z,999.63
2016-04-25T11:59:44.674Z,999.54
2016-04-25T12:00:44.208Z,999.62
2016-04-25T12:01:44.195Z,999.52
2016-04-25T12:02:44.182Z,999.56
2016-04-25T12:03:44.170Z,999.47
2016-04-25T12:04:44.156Z,999.51
2016-04-25T12:05:44.159Z,999.48
2016-04-25T12:06:44.145Z,999.44
2016-04-25T12:07:44.133Z,999.5
2016-04-25T12:08:44.120Z,999.47
2016-04-25T12:09:44.108Z,999.42